createdAt,value
2023-03-26T00:01:38.426Z,22.30
2023-03-26T00:04:12.255Z,22.40
2023-03-26T00:06:45.072Z,22.40
2023-03-26T00:09:18.745Z,22.50
2023-03-26T00:11:51.921Z,22.60
2023-03-26T00:14:24.807Z,22.70
2023-03-26T00:17:01.825Z,22.70
2023-03-26T00:19:34.484Z,22.80
2023-03-26T00:22:07.831Z,22.90
2023-03-26T00:24:41.168Z,22.90
2023-03-26T00:27:14.077Z,23.00
2023-03-26T00:29:47.210Z,23.00
2023-03-26T00:32:20.434Z,23.10
2023-03-26T00:34:54.052Z,23.00
2023-03-26T00:37:30.540Z,23.00
2023-03-26T00:40:04.707Z,23.00
2023-03-26T00:42:37.516Z,22.90
2023-03-26T00:45:11.057Z,22.90
2023-03-26T00:47:45.404Z,22.80
2023-03-26T00:50:18.349Z,22.80
2023-03-26T00:52:51.306Z,22.70
2023-03-26T00:55:25.453Z,22.70
2023-03-26T00:57:58.335Z,22.70
2023-03-26T01:00:36.745Z,22.60
2023-03-26T01:03:10.264Z,22.60
2023-03-26T01:05:47.860Z,22.50
2023-03-26T01:08:38.047Z,22.50
2023-03-26T01:11:14.168Z,22.40
2023-03-26T01:13:49.397Z,22.40
2023-03-26T01:16:41.926Z,22.30
2023-03-26T01:19:25.595Z,22.30
2023-03-26T01:21:58.585Z,22.30
2023-03-26T01:24:31.491Z,22.20
2023-03-26T01:27:22.938Z,22.20
2023-03-26T01:30:14.793Z,22.20
2023-03-26T01:32:55.972Z,22.20
2023-03-26T01:35:46.248Z,22.20
2023-03-26T01:38:42.619Z,22.20
2023-03-26T01:41:17.255Z,22.20
2023-03-26T01:44:13.624Z,22.20
2023-03-26T01:46:47.029Z,22.20
2023-03-26T01:49:21.170Z,22.20
2023-03-26T01:51:56.262Z,22.20
2023-03-26T01:54:30.974Z,22.20
2023-03-26T01:57:28.567Z,22.20
2023-03-26T02:00:22.819Z,22.30
2023-03-26T02:03:03.662Z,22.40
2023-03-26T02:05:45.793Z,22.50
2023-03-26T02:08:47.889Z,22.50
2023-03-26T02:11:21.589Z,22.60
2023-03-26T02:13:56.476Z,22.60
2023-03-26T02:16:29.533Z,22.70
2023-03-26T02:19:03.270Z,22.70
2023-03-26T02:21:36.200Z,22.80
2023-03-26T02:24:09.247Z,22.80
2023-03-26T02:26:42.234Z,22.90
2023-03-26T02:29:16.195Z,22.90
2023-03-26T02:31:50.214Z,22.90
2023-03-26T02:34:23.113Z,23.00
2023-03-26T02:36:56.745Z,23.00
2023-03-26T02:39:29.954Z,23.00
2023-03-26T02:42:03.318Z,23.00
2023-03-26T02:44:36.240Z,23.10
2023-03-26T02:47:09.170Z,23.10
2023-03-26T02:49:41.815Z,23.10
2023-03-26T02:52:14.705Z,23.10
2023-03-26T02:54:47.622Z,23.10
2023-03-26T02:57:20.516Z,23.20
2023-03-26T02:59:54.590Z,23.20
2023-03-26T03:02:27.526Z,23.20
2023-03-26T03:05:01.880Z,23.30
2023-03-26T03:07:34.861Z,23.30
2023-03-26T03:10:09.637Z,23.30
2023-03-26T03:12:42.900Z,23.30
2023-03-26T03:15:16.901Z,23.20
2023-03-26T03:17:50.077Z,23.20
2023-03-26T03:20:23.838Z,23.20
2023-03-26T03:22:56.615Z,23.10
2023-03-26T03:25:29.396Z,23.00
2023-03-26T03:28:02.203Z,23.00
2023-03-26T03:30:35.233Z,23.00
2023-03-26T03:33:10.832Z,22.90
2023-03-26T03:35:43.373Z,22.90
2023-03-26T03:38:17.093Z,22.90
2023-03-26T03:40:50.380Z,22.80
2023-03-26T03:43:23.223Z,22.80
2023-03-26T03:45:56.424Z,22.80
2023-03-26T03:48:29.870Z,22.80
2023-03-26T03:51:02.751Z,22.70
2023-03-26T03:53:37.495Z,22.70
2023-03-26T03:56:12.035Z,22.70
2023-03-26T03:58:46.540Z,22.70
2023-03-26T04:01:20.504Z,22.60
2023-03-26T04:03:53.520Z,22.60
2023-03-26T04:06:27.020Z,22.60
2023-03-26T04:08:59.858Z,22.60
2023-03-26T04:11:32.746Z,22.60
2023-03-26T04:14:05.786Z,22.60
2023-03-26T04:16:38.924Z,22.60
2023-03-26T04:19:11.501Z,22.50
2023-03-26T04:21:44.657Z,22.50
2023-03-26T04:24:17.710Z,22.50
2023-03-26T04:26:51.910Z,22.50
2023-03-26T04:29:37.929Z,22.40
2023-03-26T04:32:12.753Z,22.40
2023-03-26T04:34:46.706Z,22.30
2023-03-26T04:37:28.528Z,22.30
2023-03-26T04:40:02.354Z,22.30
2023-03-26T04:42:35.245Z,22.30
2023-03-26T04:45:08.219Z,22.30
2023-03-26T04:47:41.479Z,22.20
2023-03-26T04:50:15.512Z,22.30
2023-03-26T04:52:48.674Z,22.20
2023-03-26T04:55:23.727Z,22.20
2023-03-26T04:57:58.843Z,22.20
2023-03-26T05:00:32.055Z,22.20
2023-03-26T05:03:04.893Z,22.20
2023-03-26T05:05:37.838Z,22.20
2023-03-26T05:08:10.670Z,22.20
2023-03-26T05:10:43.635Z,22.20
2023-03-26T05:13:16.501Z,22.20
2023-03-26T05:15:49.565Z,22.20
2023-03-26T05:18:22.407Z,22.10
2023-03-26T05:20:55.580Z,22.10
2023-03-26T05:23:28.891Z,22.10
2023-03-26T05:26:01.661Z,22.00
2023-03-26T05:28:34.806Z,22.00
2023-03-26T05:31:07.553Z,22.00
2023-03-26T05:33:40.453Z,21.90
2023-03-26T05:36:19.243Z,21.90
2023-03-26T05:38:52.356Z,21.90
2023-03-26T05:41:25.739Z,21.80
2023-03-26T05:43:59.484Z,21.80
2023-03-26T05:46:32.571Z,21.80
2023-03-26T05:49:05.677Z,21.80
2023-03-26T05:51:38.624Z,21.80
2023-03-26T05:54:11.705Z,21.70
2023-03-26T05:56:45.214Z,21.70
2023-03-26T05:59:19.041Z,21.70
2023-03-26T06:01:52.741Z,21.70
2023-03-26T06:04:26.029Z,21.70
2023-03-26T06:06:59.087Z,21.60
2023-03-26T06:09:32.143Z,21.60
2023-03-26T06:12:05.096Z,21.60
2023-03-26T06:14:38.328Z,21.60
2023-03-26T06:17:11.584Z,21.60
2023-03-26T06:19:44.471Z,21.50
2023-03-26T06:22:17.712Z,21.50
2023-03-26T06:24:50.878Z,21.40
2023-03-26T06:27:23.811Z,21.40
2023-03-26T06:29:56.906Z,21.40
2023-03-26T06:32:29.949Z,21.40
2023-03-26T06:35:02.924Z,21.40
2023-03-26T06:37:36.064Z,21.30
2023-03-26T06:40:10.135Z,21.30
2023-03-26T06:43:07.676Z,21.30
2023-03-26T06:45:17.142Z,21.30
2023-03-26T06:47:50.388Z,21.30
2023-03-26T06:50:23.464Z,21.30
2023-03-26T06:52:57.606Z,21.30
2023-03-26T06:55:30.912Z,21.30
2023-03-26T06:58:03.841Z,21.30
2023-03-26T07:00:36.526Z,21.30
2023-03-26T07:03:09.562Z,21.30
2023-03-26T07:05:43.258Z,21.20
2023-03-26T07:08:16.810Z,21.20
2023-03-26T07:10:49.708Z,21.20
2023-03-26T07:13:22.950Z,21.20
2023-03-26T07:15:55.784Z,21.20
2023-03-26T07:18:28.646Z,21.20
2023-03-26T07:21:02.213Z,21.20
2023-03-26T07:23:35.585Z,21.10
2023-03-26T07:26:16.793Z,21.10
2023-03-26T07:29:04.644Z,21.10
2023-03-26T07:31:48.493Z,21.10
2023-03-26T07:34:32.100Z,21.10
2023-03-26T07:37:21.603Z,21.10
2023-03-26T07:40:11.098Z,21.00
2023-03-26T07:43:01.437Z,21.00
2023-03-26T07:45:37.212Z,21.00
2023-03-26T07:48:15.131Z,21.00
2023-03-26T07:50:48.277Z,21.00
2023-03-26T07:53:21.828Z,21.10
2023-03-26T07:56:13.089Z,21.00
2023-03-26T07:58:54.174Z,21.00
2023-03-26T08:01:44.203Z,21.00
2023-03-26T08:04:26.174Z,21.00
2023-03-26T08:07:01.692Z,21.00
2023-03-26T08:09:36.804Z,21.00
2023-03-26T08:12:11.564Z,21.00
2023-03-26T08:14:52.208Z,21.00
2023-03-26T08:17:39.961Z,21.00
2023-03-26T08:20:28.018Z,21.00
2023-03-26T08:23:04.167Z,21.00
2023-03-26T08:25:40.804Z,21.00
2023-03-26T08:28:23.767Z,21.00
2023-03-26T08:31:00.281Z,21.00
2023-03-26T08:33:35.460Z,21.00
2023-03-26T08:36:08.452Z,21.00
2023-03-26T08:38:41.511Z,21.00
2023-03-26T08:41:20.969Z,21.00
2023-03-26T08:44:15.537Z,21.00
2023-03-26T08:47:14.411Z,21.00
2023-03-26T08:50:01.238Z,21.00
2023-03-26T08:52:58.358Z,20.90
2023-03-26T08:55:48.104Z,20.90
2023-03-26T08:58:54.945Z,20.90
2023-03-26T09:01:42.012Z,20.90
2023-03-26T09:04:23.224Z,20.90
2023-03-26T09:07:29.797Z,20.90
2023-03-26T09:10:17.015Z,20.80
2023-03-26T09:13:14.370Z,20.80
2023-03-26T09:15:58.139Z,20.80
2023-03-26T09:18:49.622Z,20.80
2023-03-26T09:21:24.432Z,20.80
2023-03-26T09:24:27.810Z,20.80
2023-03-26T09:27:17.607Z,20.80
2023-03-26T09:30:04.333Z,20.80
2023-03-26T09:32:48.863Z,20.80
2023-03-26T09:35:29.401Z,20.80
2023-03-26T09:38:23.441Z,20.80
2023-03-26T09:41:04.271Z,20.80
2023-03-26T09:43:50.990Z,20.80
2023-03-26T09:46:32.921Z,20.80
2023-03-26T09:49:13.664Z,20.80
2023-03-26T09:51:57.652Z,20.80
2023-03-26T09:54:50.745Z,20.80
2023-03-26T09:57:29.025Z,20.80
2023-03-26T10:00:32.486Z,20.80
2023-03-26T10:03:23.475Z,20.80
2023-03-26T10:06:04.642Z,20.80
2023-03-26T10:08:43.278Z,20.80
2023-03-26T10:11:39.232Z,20.70
2023-03-26T10:14:20.112Z,20.70
2023-03-26T10:17:20.370Z,20.70
2023-03-26T10:20:10.820Z,20.70
2023-03-26T10:23:14.379Z,20.70
2023-03-26T10:26:01.302Z,20.70
2023-03-26T10:28:42.049Z,20.70
2023-03-26T10:31:45.567Z,20.70
2023-03-26T10:34:48.988Z,20.70
2023-03-26T10:37:51.180Z,20.70
2023-03-26T10:40:38.127Z,20.70
2023-03-26T10:43:38.366Z,20.70
2023-03-26T10:46:18.876Z,20.70
2023-03-26T10:49:03.998Z,20.70
2023-03-26T10:52:03.376Z,20.70
2023-03-26T10:54:46.904Z,20.70
2023-03-26T10:57:51.340Z,20.70
2023-03-26T11:00:28.935Z,20.70
2023-03-26T11:03:25.102Z,20.70
2023-03-26T11:06:05.346Z,20.70
2023-03-26T11:09:03.412Z,20.70
2023-03-26T11:11:50.035Z,20.70
2023-03-26T11:14:34.234Z,20.70
2023-03-26T11:17:40.353Z,20.70
2023-03-26T11:19:58.585Z,20.70
2023-03-26T11:22:44.996Z,20.70
2023-03-26T11:25:29.435Z,20.70
2023-03-26T11:28:12.226Z,20.70
2023-03-26T11:30:47.294Z,20.70
2023-03-26T11:33:25.178Z,20.70
2023-03-26T11:36:00.269Z,20.70
2023-03-26T11:38:39.233Z,20.70
2023-03-26T11:41:25.969Z,20.70
2023-03-26T11:44:01.157Z,20.70
2023-03-26T11:46:35.722Z,20.70
2023-03-26T11:49:13.466Z,20.70
2023-03-26T11:51:47.690Z,20.70
2023-03-26T11:54:20.912Z,20.70
2023-03-26T11:57:04.525Z,20.70
2023-03-26T11:59:41.958Z,20.70
2023-03-26T12:02:19.498Z,20.70
2023-03-26T12:04:57.331Z,20.70
2023-03-26T12:07:37.788Z,20.60
2023-03-26T12:10:18.587Z,20.60
2023-03-26T12:12:51.944Z,20.70
2023-03-26T12:15:27.733Z,20.70
2023-03-26T12:18:02.128Z,20.70
2023-03-26T12:20:37.952Z,20.70
2023-03-26T12:23:12.311Z,20.60
2023-03-26T12:25:45.673Z,20.60
2023-03-26T12:28:20.946Z,20.60
2023-03-26T12:30:59.469Z,20.60
2023-03-26T12:33:35.522Z,20.60
2023-03-26T12:36:28.647Z,20.60
2023-03-26T12:39:16.157Z,20.60
2023-03-26T12:44:42.720Z,20.60
2023-03-26T12:44:47.303Z,20.60
2023-03-26T12:47:57.154Z,20.60
2023-03-26T12:49:59.503Z,20.50
2023-03-26T12:52:43.268Z,20.50
2023-03-26T12:55:20.716Z,20.50
2023-03-26T12:58:01.154Z,20.50
2023-03-26T13:00:55.703Z,20.50
2023-03-26T13:03:31.678Z,20.50
2023-03-26T13:06:25.425Z,20.50
2023-03-26T13:09:09.246Z,20.50
2023-03-26T13:12:14.674Z,20.50
2023-03-26T13:15:05.976Z,20.40
2023-03-26T13:17:56.278Z,20.40
2023-03-26T13:20:37.553Z,20.40
2023-03-26T13:23:35.389Z,20.40
2023-03-26T13:26:16.137Z,20.40
2023-03-26T13:29:03.205Z,20.40
2023-03-26T13:31:37.855Z,20.40
2023-03-26T13:34:19.285Z,20.40
2023-03-26T13:37:03.540Z,20.40
2023-03-26T13:39:53.730Z,20.40
2023-03-26T13:42:28.826Z,20.40
2023-03-26T13:45:20.238Z,20.40
2023-03-26T13:47:55.801Z,20.40
2023-03-26T13:50:42.722Z,20.40
2023-03-26T13:53:26.911Z,20.40
2023-03-26T13:56:04.273Z,20.40
2023-03-26T13:58:54.010Z,20.40
2023-03-26T14:01:29.880Z,20.40
2023-03-26T14:04:21.639Z,20.40
2023-03-26T14:07:05.758Z,20.40
2023-03-26T14:09:43.182Z,20.40
2023-03-26T14:12:27.481Z,20.40
2023-03-26T14:15:23.265Z,20.40
2023-03-26T14:18:04.630Z,20.40
2023-03-26T14:20:55.038Z,20.30
2023-03-26T14:23:50.747Z,20.30
2023-03-26T14:26:33.165Z,20.30
2023-03-26T14:29:29.033Z,20.30
2023-03-26T14:32:15.486Z,20.30
2023-03-26T14:35:18.360Z,20.30
2023-03-26T14:38:13.985Z,20.30
2023-03-26T14:40:54.777Z,20.30
2023-03-26T14:43:41.855Z,20.30
2023-03-26T14:46:22.139Z,20.30
2023-03-26T14:49:12.297Z,20.30
2023-03-26T14:51:53.588Z,20.30
2023-03-26T14:54:29.113Z,20.30
2023-03-26T14:57:25.532Z,20.30
2023-03-26T15:00:10.959Z,20.30
2023-03-26T15:03:04.108Z,20.30
2023-03-26T15:05:56.655Z,20.30
2023-03-26T15:08:43.097Z,20.20
2023-03-26T15:11:45.575Z,20.20
2023-03-26T15:14:46.122Z,20.20
2023-03-26T15:17:52.917Z,20.20
2023-03-26T15:20:48.469Z,20.20
2023-03-26T15:23:41.867Z,20.20
2023-03-26T15:26:43.511Z,20.20
2023-03-26T15:29:42.037Z,20.20
2023-03-26T15:32:34.394Z,20.10
2023-03-26T15:35:27.140Z,20.10
2023-03-26T15:38:19.648Z,20.20
2023-03-26T15:41:22.015Z,20.20
2023-03-26T15:44:24.714Z,20.20
2023-03-26T15:46:56.972Z,20.20
2023-03-26T15:49:32.899Z,20.20
2023-03-26T15:52:17.830Z,20.20
2023-03-26T15:55:05.784Z,20.20
2023-03-26T15:57:50.344Z,20.20
2023-03-26T16:00:32.957Z,20.20
2023-03-26T16:03:24.180Z,20.20
2023-03-26T16:06:03.107Z,20.20
2023-03-26T16:08:48.440Z,20.20
2023-03-26T16:11:23.915Z,20.20
2023-03-26T16:14:01.382Z,20.10
2023-03-26T16:16:53.886Z,20.10
2023-03-26T16:19:31.686Z,20.10
2023-03-26T16:22:06.524Z,20.10
2023-03-26T16:24:41.470Z,20.10
2023-03-26T16:27:30.826Z,20.10
2023-03-26T16:30:09.209Z,20.10
2023-03-26T16:32:46.898Z,20.10
2023-03-26T16:35:21.958Z,20.10
2023-03-26T16:37:57.953Z,20.10
2023-03-26T16:40:38.610Z,20.10
2023-03-26T16:43:34.550Z,20.10
2023-03-26T16:46:15.561Z,20.10
2023-03-26T16:49:03.306Z,20.10
2023-03-26T16:51:44.256Z,20.10
2023-03-26T16:54:46.516Z,20.10
2023-03-26T16:57:34.274Z,20.00
2023-03-26T17:00:09.702Z,20.00
2023-03-26T17:03:03.545Z,20.00
2023-03-26T17:05:41.548Z,20.00
2023-03-26T17:08:43.044Z,20.00
2023-03-26T17:11:39.808Z,19.90
2023-03-26T17:14:23.693Z,19.90
2023-03-26T17:17:13.227Z,19.90
2023-03-26T17:20:11.721Z,19.90
2023-03-26T17:23:12.599Z,19.80
2023-03-26T17:26:10.612Z,19.80
2023-03-26T17:29:10.996Z,19.80
2023-03-26T17:32:02.262Z,19.70
2023-03-26T17:34:47.029Z,19.70
2023-03-26T17:37:25.486Z,19.70
2023-03-26T17:40:03.473Z,19.70
2023-03-26T17:42:37.586Z,19.60
2023-03-26T17:45:28.217Z,19.60
2023-03-26T17:48:15.494Z,19.60
2023-03-26T17:50:56.719Z,19.60
2023-03-26T17:53:32.919Z,19.50
2023-03-26T17:56:07.529Z,19.50
2023-03-26T17:58:54.808Z,19.50
2023-03-26T18:01:35.989Z,19.50
2023-03-26T18:04:13.966Z,19.50
2023-03-26T18:07:11.567Z,19.40
2023-03-26T18:09:58.420Z,19.40
2023-03-26T18:13:03.950Z,19.40
2023-03-26T18:15:45.077Z,19.40
2023-03-26T18:18:26.244Z,19.30
2023-03-26T18:21:02.403Z,19.40
2023-03-26T18:23:45.529Z,19.40
2023-03-26T18:26:28.573Z,19.40
2023-03-26T18:29:03.878Z,19.40
2023-03-26T18:31:36.699Z,19.30
2023-03-26T18:34:12.601Z,19.30
2023-03-26T18:36:45.574Z,19.30
2023-03-26T18:39:19.142Z,19.30
2023-03-26T18:41:52.150Z,19.30
2023-03-26T18:44:25.045Z,19.40
2023-03-26T18:46:58.176Z,19.40
2023-03-26T18:49:31.985Z,19.40
2023-03-26T18:52:05.030Z,19.40
2023-03-26T18:54:39.418Z,19.40
2023-03-26T18:57:17.403Z,19.40
2023-03-26T18:59:53.698Z,19.50
2023-03-26T19:02:26.246Z,19.50
2023-03-26T19:04:59.377Z,19.50
2023-03-26T19:07:33.184Z,19.50
2023-03-26T19:10:06.427Z,19.50
2023-03-26T19:12:39.376Z,19.60
2023-03-26T19:15:19.864Z,19.60
2023-03-26T19:17:58.603Z,19.70
2023-03-26T19:20:33.290Z,19.70
2023-03-26T19:23:07.698Z,19.70
2023-03-26T19:25:42.985Z,19.70
2023-03-26T19:28:29.687Z,19.70
2023-03-26T19:31:21.137Z,19.80
2023-03-26T19:33:59.015Z,19.80
2023-03-26T19:36:33.645Z,19.80
2023-03-26T19:39:08.494Z,19.80
2023-03-26T19:41:44.329Z,19.80
2023-03-26T19:44:25.130Z,19.90
2023-03-26T19:47:06.133Z,19.90
2023-03-26T19:49:47.248Z,19.90
2023-03-26T19:52:28.286Z,19.90
2023-03-26T19:55:11.323Z,19.90
2023-03-26T19:57:44.938Z,20.00
2023-03-26T20:00:22.249Z,20.00
2023-03-26T20:02:55.454Z,20.00
2023-03-26T20:05:30.767Z,20.00
2023-03-26T20:08:08.821Z,20.00
2023-03-26T20:10:40.978Z,20.10
2023-03-26T20:13:20.617Z,20.10
2023-03-26T20:16:05.612Z,20.10
2023-03-26T20:18:32.274Z,20.10
2023-03-26T20:21:05.340Z,20.20
2023-03-26T20:23:38.170Z,20.20
2023-03-26T20:26:20.393Z,20.20
2023-03-26T20:28:53.787Z,20.30
2023-03-26T20:31:28.636Z,20.30
2023-03-26T20:34:01.514Z,20.30
2023-03-26T20:36:35.646Z,20.40
2023-03-26T20:39:09.510Z,20.40
2023-03-26T20:41:47.963Z,20.40
2023-03-26T20:44:20.803Z,20.40
2023-03-26T20:46:54.434Z,20.50
2023-03-26T20:49:27.527Z,20.50
2023-03-26T20:52:01.453Z,20.50
2023-03-26T20:54:34.386Z,20.50
2023-03-26T20:57:07.423Z,20.50
2023-03-26T20:59:40.698Z,20.50
2023-03-26T21:02:14.870Z,20.50
2023-03-26T21:04:48.957Z,20.50
2023-03-26T21:07:21.891Z,20.50
2023-03-26T21:09:54.994Z,20.50
2023-03-26T21:12:36.296Z,20.50
2023-03-26T21:15:16.816Z,20.50
2023-03-26T21:17:44.349Z,20.50
2023-03-26T21:20:18.688Z,20.60
2023-03-26T21:23:14.526Z,20.60
2023-03-26T21:25:53.230Z,20.60
2023-03-26T21:28:41.927Z,20.60
2023-03-26T21:31:11.397Z,20.60
2023-03-26T21:33:44.576Z,20.60
2023-03-26T21:36:18.264Z,20.70
2023-03-26T21:38:52.404Z,20.70
2023-03-26T21:41:48.676Z,20.70
2023-03-26T21:44:25.467Z,20.70
2023-03-26T21:46:58.646Z,20.80
2023-03-26T21:49:32.195Z,20.80
2023-03-26T21:52:05.487Z,20.80
2023-03-26T21:54:39.079Z,20.80
2023-03-26T21:57:32.834Z,20.90
2023-03-26T22:00:28.223Z,20.90
2023-03-26T22:03:09.233Z,20.90
2023-03-26T22:05:55.499Z,20.90
2023-03-26T22:08:33.368Z,20.90
2023-03-26T22:11:06.300Z,20.90
2023-03-26T22:13:40.677Z,20.90
2023-03-26T22:16:13.897Z,20.90
2023-03-26T22:18:46.877Z,20.90
2023-03-26T22:21:19.878Z,21.00
2023-03-26T22:23:54.725Z,21.00
2023-03-26T22:26:28.230Z,21.00
2023-03-26T22:29:01.305Z,21.00
2023-03-26T22:31:34.204Z,21.00
2023-03-26T22:34:08.324Z,21.10
2023-03-26T22:36:41.152Z,21.10
2023-03-26T22:39:14.102Z,21.10
2023-03-26T22:41:47.072Z,21.10
2023-03-26T22:44:20.672Z,21.10
2023-03-26T22:46:54.254Z,21.10
2023-03-26T22:49:31.246Z,21.10
2023-03-26T22:52:04.472Z,21.10
2023-03-26T22:54:38.410Z,21.10
2023-03-26T22:57:12.142Z,21.20
2023-03-26T22:59:45.227Z,21.10
2023-03-26T23:02:24.659Z,21.10
2023-03-26T23:04:57.441Z,21.20
2023-03-26T23:07:30.485Z,21.20
2023-03-26T23:10:03.374Z,21.20
2023-03-26T23:12:36.186Z,21.20
2023-03-26T23:15:10.021Z,21.20
2023-03-26T23:17:42.913Z,21.20
2023-03-26T23:20:17.591Z,21.20
2023-03-26T23:22:50.552Z,21.20
2023-03-26T23:25:23.437Z,21.20
2023-03-26T23:27:56.889Z,21.30
2023-03-26T23:30:30.341Z,21.30
2023-03-26T23:33:03.788Z,21.30
2023-03-26T23:35:37.869Z,21.30
2023-03-26T23:38:10.988Z,21.30
2023-03-26T23:40:44.693Z,21.40
2023-03-26T23:43:18.682Z,21.40
2023-03-26T23:45:53.286Z,21.40
2023-03-26T23:48:27.624Z,21.40
2023-03-26T23:51:03.984Z,21.50
2023-03-26T23:53:36.897Z,21.50
2023-03-26T23:56:10.266Z,21.50
2023-03-26T23:58:43.680Z,21.50
